Time;durP1;ratioP1;P1;durP2;ratioP2;P2;SDS_P1;SDS_P2;PMS_P1;PMS_P2;Temp;Humidity;BMP_temperature;BMP_pressure;BME280_temperature;BME280_humidity;BME280_pressure;Samples;Min_cycle;Max_cycle;Signal;HPM_P1;HPM_P2
2023/04/01 00:00:18;;;;;;;;;;;;;;;19.22;58.64;97697.63;2084713;28;20460;-55
2023/04/01 00:01:18;;;;;;;;;;;;;;;19.22;58.89;97700.31;2086239;28;19982;-50
2023/04/01 00:02:20;;;;;;;;;;;;;;;19.22;58.61;97705.69;2084006;28;19993;-53
2023/04/01 00:03:21;;;;;;;;;;;;;;;19.23;58.72;97704.66;2086118;28;19925;-53
2023/04/01 00:04:23;;;;;;;;;;;;;;;19.23;58.71;97703.84;2086155;28;20425;-52
2023/04/01 00:05:24;;;;;;;;;;;;;;;19.21;58.83;97701.38;2085411;28;20452;-54
2023/04/01 00:06:27;;;;;;;;;;;;;;;19.23;58.79;97701.16;2086708;28;19932;-53
2023/04/01 00:07:27;;;;;;;;;;;;;;;19.20;58.87;97700.56;2086863;28;19932;-53
2023/04/01 00:08:29;;;;;;;;;;;;;;;19.20;58.76;97697.06;2085825;28;20414;-52
2023/04/01 00:09:30;;;;;;;;;;;;;;;19.19;58.90;97692.72;2087131;28;19930;-53
2023/04/01 00:10:31;;;;;;;;;;;;;;;19.20;58.86;97697.88;2082683;28;19986;-53
2023/04/01 00:11:32;;;;;;;;;;;;;;;19.19;58.79;97701.63;2083973;28;20593;-53
2023/04/01 00:12:34;;;;;;;;;;;;;;;19.20;58.51;97699.75;2087091;28;19929;-53
2023/04/01 00:13:35;;;;;;;;;;;;;;;19.19;58.54;97698.94;2085142;28;20568;-54
2023/04/01 00:14:39;;;;;;;;;;;;;;;19.17;58.91;97695.66;2085961;28;20386;-55
2023/04/01 00:15:40;;;;;;;;;;;;;;;19.17;58.62;97701.03;2086315;28;20558;-55
2023/04/01 00:16:41;;;;;;;;;;;;;;;19.18;58.61;97709.91;2085254;28;19929;-53
2023/04/01 00:17:41;;;;;;;;;;;;;;;19.17;58.89;97711.78;2086804;28;19932;-52
2023/04/01 00:18:43;;;;;;;;;;;;;;;19.16;58.61;97702.06;2086240;28;19934;-53
2023/04/01 00:19:43;;;;;;;;;;;;;;;19.16;58.64;97699.34;2085147;28;20005;-53
2023/04/01 00:20:45;;;;;;;;;;;;;;;19.17;58.85;97700.19;2085677;27;19928;-50
2023/04/01 00:21:47;;;;;;;;;;;;;;;19.16;58.82;97698.53;2087415;28;19928;-54
2023/04/01 00:22:49;;;;;;;;;;;;;;;19.16;58.57;97703.91;2086509;28;19925;-54
2023/04/01 00:23:50;;;;;;;;;;;;;;;19.16;58.58;97703.91;2085846;28;20299;-53
2023/04/01 00:24:52;;;;;;;;;;;;;;;19.16;58.77;97706.59;2088573;28;19950;-54
2023/04/01 00:25:52;;;;;;;;;;;;;;;19.15;58.66;97707.66;2086431;28;19974;-57
2023/04/01 00:26:54;;;;;;;;;;;;;;;19.14;58.73;97708.72;2075951;28;20297;-53
2023/04/01 00:27:55;;;;;;;;;;;;;;;19.15;58.52;97699.59;2080126;28;19964;-53
2023/04/01 00:28:56;;;;;;;;;;;;;;;19.12;58.63;97692.81;2077945;28;19939;-54
2023/04/01 00:29:57;;;;;;;;;;;;;;;19.12;58.73;97703.56;2085991;28;20036;-53
2023/04/01 00:30:58;;;;;;;;;;;;;;;19.12;58.52;97697.38;2086679;28;20591;-53
2023/04/01 00:31:59;;;;;;;;;;;;;;;19.12;58.49;97692.00;2081545;28;19932;-50
2023/04/01 00:33:01;;;;;;;;;;;;;;;19.13;58.72;97693.63;2085051;28;19932;-55
2023/04/01 00:34:02;;;;;;;;;;;;;;;19.12;58.58;97708.13;2085179;28;19929;-51
2023/04/01 00:35:03;;;;;;;;;;;;;;;19.11;58.57;97701.09;2085523;28;19936;-50
2023/04/01 00:36:08;;;;;;;;;;;;;;;19.12;58.65;97713.50;2084952;28;21513;-53
2023/04/01 00:37:11;;;;;;;;;;;;;;;19.10;58.61;97710.22;2086408;28;20555;-52
2023/04/01 00:38:12;;;;;;;;;;;;;;;19.10;58.65;97710.22;2084903;28;19928;-54
2023/04/01 00:39:13;;;;;;;;;;;;;;;19.10;58.75;97710.22;2085875;28;19933;-54
2023/04/01 00:40:23;;;;;;;;;;;;;;;19.08;58.66;97707.75;2085315;28;19936;-54
2023/04/01 00:41:23;;;;;;;;;;;;;;;19.08;58.61;97712.31;2085405;28;19936;-52
2023/04/01 00:42:25;;;;;;;;;;;;;;;19.08;58.46;97709.63;2084833;28;19930;-55
2023/04/01 00:43:26;;;;;;;;;;;;;;;19.07;58.46;97711.50;2086077;28;19924;-54
2023/04/01 00:44:28;;;;;;;;;;;;;;;19.06;58.53;97704.50;2085144;28;19936;-54
2023/04/01 00:45:33;;;;;;;;;;;;;;;19.08;58.74;97706.94;2086006;28;19936;-54
2023/04/01 00:46:35;;;;;;;;;;;;;;;19.07;58.59;97698.06;2087368;28;19972;-53
2023/04/01 00:47:36;;;;;;;;;;;;;;;19.06;58.75;97709.06;2085004;28;19932;-53
2023/04/01 00:48:39;;;;;;;;;;;;;;;19.05;58.64;97700.16;2087553;28;19963;-50
2023/04/01 00:49:42;;;;;;;;;;;;;;;19.05;58.51;97704.72;2086691;28;20399;-52
2023/04/01 00:50:45;;;;;;;;;;;;;;;19.05;58.59;97712.78;2084625;28;19936;-55
2023/04/01 00:51:48;;;;;;;;;;;;;;;19.04;58.73;97711.13;2085158;28;20512;-55
2023/04/01 00:52:51;;;;;;;;;;;;;;;19.04;58.59;97719.19;2085404;28;20110;-52
2023/04/01 00:53:53;;;;;;;;;;;;;;;19.05;58.71;97718.16;2086317;28;19928;-51
2023/04/01 00:54:57;;;;;;;;;;;;;;;19.04;58.68;97711.97;2087352;28;19935;-53
2023/04/01 00:56:00;;;;;;;;;;;;;;;19.04;58.38;97719.19;2085877;28;20571;-57
2023/04/01 00:57:02;;;;;;;;;;;;;;;19.02;58.52;97715.91;2085581;28;19929;-53
2023/04/01 00:58:05;;;;;;;;;;;;;;;19.03;58.50;97721.06;2084988;28;19955;-56
2023/04/01 00:59:10;;;;;;;;;;;;;;;19.03;58.50;97715.69;2086677;28;19939;-53
2023/04/01 01:00:13;;;;;;;;;;;;;;;19.03;58.45;97712.16;2084020;28;20012;-55
2023/04/01 01:01:16;;;;;;;;;;;;;;;19.02;58.51;97714.03;2087473;28;20050;-53
2023/04/01 01:02:17;;;;;;;;;;;;;;;19.01;58.57;97707.03;2085402;28;19939;-55
2023/04/01 01:03:18;;;;;;;;;;;;;;;19.00;58.52;97710.78;2084853;28;19978;-54
2023/04/01 01:04:21;;;;;;;;;;;;;;;19.02;58.62;97710.53;2086090;28;20345;-53
2023/04/01 01:05:29;;;;;;;;;;;;;;;19.02;58.68;97707.84;2086394;28;19931;-55
2023/04/01 01:06:38;;;;;;;;;;;;;;;19.00;58.76;97707.25;2086532;28;20023;-50
2023/04/01 01:07:46;;;;;;;;;;;;;;;19.00;58.79;97702.72;2084835;28;19936;-51
2023/04/01 01:08:58;;;;;;;;;;;;;;;19.01;58.51;97700.84;2085290;28;19932;-53
2023/04/01 01:10:03;;;;;;;;;;;;;;;18.98;58.33;97699.44;2085970;28;19932;-55
2023/04/01 01:11:05;;;;;;;;;;;;;;;18.97;58.67;97703.16;2086081;28;20334;-56
2023/04/01 01:12:09;;;;;;;;;;;;;;;18.97;58.73;97695.94;2086012;28;19929;-52
2023/04/01 01:13:11;;;;;;;;;;;;;;;18.97;58.69;97695.94;2087504;28;19967;-52
2023/04/01 01:14:20;;;;;;;;;;;;;;;18.94;58.76;97692.88;2086188;28;20305;-52
2023/04/01 01:15:24;;;;;;;;;;;;;;;18.94;58.69;97696.41;2086802;28;20613;-55
2023/04/01 01:16:27;;;;;;;;;;;;;;;18.95;58.56;97691.84;2087439;28;20399;-56
2023/04/01 01:17:32;;;;;;;;;;;;;;;18.96;58.45;97699.66;2085417;28;19993;-54
2023/04/01 01:18:36;;;;;;;;;;;;;;;18.95;58.68;97692.66;2084666;28;19971;-53
2023/04/01 01:19:52;;;;;;;;;;;;;;;18.94;58.72;97696.41;2085412;28;19929;-54
2023/04/01 01:21:09;;;;;;;;;;;;;;;18.95;58.46;97698.03;2086377;28;19932;-52
2023/04/01 01:22:18;;;;;;;;;;;;;;;18.93;58.81;97694.75;2087231;28;19928;-53
2023/04/01 01:23:30;;;;;;;;;;;;;;;18.92;58.67;97698.47;2085655;28;19924;-54
2023/04/01 01:24:42;;;;;;;;;;;;;;;18.93;58.82;97693.94;2088181;28;20397;-50
2023/04/01 01:25:49;;;;;;;;;;;;;;;18.93;58.60;97696.63;2086499;28;19999;-55
2023/04/01 01:26:54;;;;;;;;;;;;;;;18.92;58.58;97693.13;2087328;28;19940;-52
2023/04/01 01:27:59;;;;;;;;;;;;;;;18.92;58.56;97693.13;2087641;28;19925;-53
2023/04/01 01:29:05;;;;;;;;;;;;;;;18.91;58.52;97693.31;2085968;28;20354;-52
2023/04/01 01:30:13;;;;;;;;;;;;;;;18.91;58.75;97693.31;2087347;28;19983;-54
2023/04/01 01:31:19;;;;;;;;;;;;;;;18.91;58.77;97699.50;2087192;28;20067;-50
2023/04/01 01:32:32;;;;;;;;;;;;;;;18.91;58.42;97690.63;2087240;28;19928;-53
2023/04/01 01:33:45;;;;;;;;;;;;;;;18.91;58.62;97693.31;2088877;28;19942;-49
2023/04/01 01:34:52;;;;;;;;;;;;;;;18.88;58.88;97697.28;2088068;28;19975;-53
2023/04/01 01:35:56;;;;;;;;;;;;;;;18.87;58.57;97684.91;2088028;28;20303;-58
2023/04/01 01:37:00;;;;;;;;;;;;;;;18.87;58.73;97701.03;2090133;28;19928;-51
2023/04/01 01:38:03;;;;;;;;;;;;;;;18.90;58.73;97695.19;2088433;28;19928;-52
2023/04/01 01:39:06;;;;;;;;;;;;;;;18.88;58.53;97694.59;2088035;28;19924;-55
2023/04/01 01:40:09;;;;;;;;;;;;;;;18.87;58.72;97684.91;2081733;28;19971;-52
2023/04/01 01:41:13;;;;;;;;;;;;;;;18.88;58.53;97683.84;2104253;27;19935;-56
2023/04/01 01:42:17;;;;;;;;;;;;;;;18.88;58.40;97685.72;2096381;28;22158;-52
2023/04/01 01:43:20;;;;;;;;;;;;;;;18.86;58.59;97683.28;2087534;28;19928;-54
2023/04/01 01:44:21;;;;;;;;;;;;;;;18.87;58.73;97686.78;2087512;28;19998;-53
2023/04/01 01:45:24;;;;;;;;;;;;;;;18.86;58.54;97680.59;2086321;28;19928;-50
2023/04/01 01:46:26;;;;;;;;;;;;;;;18.86;58.48;97680.59;2080102;28;19940;-52
2023/04/01 01:47:29;;;;;;;;;;;;;;;18.87;58.79;97682.22;2087256;28;20118;-51
2023/04/01 01:48:31;;;;;;;;;;;;;;;18.86;58.73;97690.50;2089305;28;20027;-52
2023/04/01 01:49:34;;;;;;;;;;;;;;;18.85;58.71;97681.63;2085577;28;20332;-51
2023/04/01 01:50:35;;;;;;;;;;;;;;;18.86;58.63;97683.28;2087279;28;19947;-52
2023/04/01 01:51:39;;;;;;;;;;;;;;;18.84;58.46;97680.00;2087525;28;19974;-52
2023/04/01 01:52:39;;;;;;;;;;;;;;;18.84;58.60;97680.00;2087441;28;19928;-52
2023/04/01 01:53:41;;;;;;;;;;;;;;;18.82;58.51;97679.41;2086785;28;21001;-53
2023/04/01 01:54:47;;;;;;;;;;;;;;;18.83;58.67;97681.03;2089273;28;20520;-53
2023/04/01 01:55:48;;;;;;;;;;;;;;;18.82;58.43;97676.72;2086805;28;19975;-50
2023/04/01 01:56:51;;;;;;;;;;;;;;;18.83;58.52;97677.53;2088257;28;19929;-53
2023/04/01 01:57:53;;;;;;;;;;;;;;;18.82;58.77;97679.41;2086114;28;19929;-52
2023/04/01 01:58:57;;;;;;;;;;;;;;;18.81;58.50;97676.97;2086917;28;20347;-51
2023/04/01 02:00:00;;;;;;;;;;;;;;;18.81;58.73;97676.97;2086733;28;19933;-51
2023/04/01 02:01:03;;;;;;;;;;;;;;;18.81;58.74;97679.63;2087714;28;20422;-54
2023/04/01 02:02:07;;;;;;;;;;;;;;;18.81;58.46;97676.97;2086882;28;20585;-52
2023/04/01 02:03:09;;;;;;;;;;;;;;;18.80;58.93;97675.31;2087102;28;19925;-52
2023/04/01 02:04:11;;;;;;;;;;;;;;;18.80;58.66;97677.97;2087175;28;20914;-53
2023/04/01 02:05:15;;;;;;;;;;;;;;;18.80;58.69;97678.81;2085346;28;19928;-54
2023/04/01 02:06:19;;;;;;;;;;;;;;;18.80;58.50;97677.97;2088792;28;20002;-54
2023/04/01 02:07:23;;;;;;;;;;;;;;;18.80;58.56;97675.31;2086715;28;19939;-52
2023/04/01 02:08:27;;;;;;;;;;;;;;;18.78;58.68;97674.69;2086326;28;19932;-54
2023/04/01 02:09:29;;;;;;;;;;;;;;;18.79;58.68;97682.53;2087931;28;19941;-51
2023/04/01 02:10:32;;;;;;;;;;;;;;;18.79;58.88;97679.84;2088713;28;19935;-54
2023/04/01 02:11:36;;;;;;;;;;;;;;;18.77;58.69;97684.63;2086655;28;20646;-54
2023/04/01 02:12:38;;;;;;;;;;;;;;;18.78;58.54;97678.22;2086683;28;19968;-53
2023/04/01 02:13:42;;;;;;;;;;;;;;;18.78;58.46;97683.59;2086194;28;20346;-54
2023/04/01 02:14:46;;;;;;;;;;;;;;;18.77;58.86;97678.44;2086900;28;19939;-52
2023/04/01 02:15:48;;;;;;;;;;;;;;;18.76;58.59;97677.63;2086569;28;19936;-54
2023/04/01 02:16:53;;;;;;;;;;;;;;;18.77;58.67;97684.63;2087198;28;19931;-51
2023/04/01 02:17:54;;;;;;;;;;;;;;;18.76;58.72;97683.00;2085393;28;19936;-53
2023/04/01 02:18:57;;;;;;;;;;;;;;;18.76;58.63;97683.00;2086913;28;19936;-55
2023/04/01 02:19:59;;;;;;;;;;;;;;;18.74;58.55;97675.16;2086281;28;20414;-54
2023/04/01 02:21:01;;;;;;;;;;;;;;;18.74;58.61;97677.03;2086667;27;20333;-52
2023/04/01 02:22:02;;;;;;;;;;;;;;;18.74;58.45;97672.47;2086805;28;20977;-54
2023/04/01 02:23:07;;;;;;;;;;;;;;;18.72;58.57;97671.88;2085324;28;19935;-54
2023/04/01 02:24:10;;;;;;;;;;;;;;;18.74;58.56;97679.72;2086266;27;20000;-54
2023/04/01 02:25:13;;;;;;;;;;;;;;;18.73;58.66;97675.38;2085057;28;20375;-52
2023/04/01 02:26:14;;;;;;;;;;;;;;;18.73;58.69;97683.44;2087525;28;20010;-51
2023/04/01 02:27:16;;;;;;;;;;;;;;;18.73;58.68;97678.06;2087192;28;20002;-52
2023/04/01 02:28:19;;;;;;;;;;;;;;;18.72;58.50;97674.56;2087032;28;20667;-53
2023/04/01 02:29:22;;;;;;;;;;;;;;;18.72;58.63;97668.34;2088829;28;19951;-53
2023/04/01 02:30:23;;;;;;;;;;;;;;;18.73;58.67;97673.50;2087361;28;20389;-53
2023/04/01 02:31:25;;;;;;;;;;;;;;;18.71;58.55;97675.59;2087629;28;19986;-52
2023/04/01 02:32:27;;;;;;;;;;;;;;;18.71;58.71;97680.97;2086597;28;19936;-50
2023/04/01 02:33:29;;;;;;;;;;;;;;;18.71;58.73;97680.13;2085621;28;19924;-52
2023/04/01 02:34:30;;;;;;;;;;;;;;;18.72;58.53;97681.78;2080453;28;20476;-54
2023/04/01 02:35:33;;;;;;;;;;;;;;;18.69;58.77;97682.22;2084010;28;19932;-54
2023/04/01 02:36:35;;;;;;;;;;;;;;;18.70;58.67;97681.19;2082842;28;19936;-55
2023/04/01 02:37:37;;;;;;;;;;;;;;;18.69;58.57;97680.38;2082803;28;20125;-54
2023/04/01 02:38:39;;;;;;;;;;;;;;;18.70;58.53;97683.88;2085665;28;19932;-53
2023/04/01 02:39:42;;;;;;;;;;;;;;;18.69;58.48;97680.38;2082619;28;19929;-55
2023/04/01 02:40:46;;;;;;;;;;;;;;;18.69;58.79;97677.69;2080785;28;19983;-55
2023/04/01 02:41:48;;;;;;;;;;;;;;;18.68;58.61;97677.91;2084670;28;19935;-53
2023/04/01 02:42:48;;;;;;;;;;;;;;;18.69;58.48;97671.47;2082248;28;19982;-54
2023/04/01 02:43:50;;;;;;;;;;;;;;;18.68;58.34;97673.34;2079575;28;19936;-51
2023/04/01 02:44:50;;;;;;;;;;;;;;;18.67;58.86;97673.59;2083082;28;19939;-52
2023/04/01 02:45:52;;;;;;;;;;;;;;;18.66;58.50;97675.44;2083929;28;19993;-54
2023/04/01 02:46:52;;;;;;;;;;;;;;;18.67;58.70;97681.66;2078050;28;19924;-60
2023/04/01 02:47:54;;;;;;;;;;;;;;;18.67;58.69;97670.91;2075942;28;20785;-53
2023/04/01 02:48:55;;;;;;;;;;;;;;;18.67;58.74;97669.03;2076179;28;19969;-51
2023/04/01 02:49:58;;;;;;;;;;;;;;;18.66;58.73;97677.31;2071724;28;19925;-54
2023/04/01 02:50:58;;;;;;;;;;;;;;;18.66;58.77;97670.06;2079859;28;19925;-50
2023/04/01 02:52:00;;;;;;;;;;;;;;;18.66;58.61;97677.31;2074257;28;20542;-54
2023/04/01 02:53:02;;;;;;;;;;;;;;;18.66;58.69;97680.81;2074419;28;21514;-52
2023/04/01 02:54:05;;;;;;;;;;;;;;;18.67;58.63;97674.41;2069086;28;19933;-52
2023/04/01 02:55:06;;;;;;;;;;;;;;;18.66;58.87;97675.44;2078151;28;19929;-52
2023/04/01 02:56:08;;;;;;;;;;;;;;;18.66;58.64;97671.94;2076520;28;20011;-50
2023/04/01 02:57:08;;;;;;;;;;;;;;;18.66;58.58;97672.75;2075480;28;21207;-52
2023/04/01 02:58:09;;;;;;;;;;;;;;;18.66;58.59;97671.94;2068901;28;19978;-53
2023/04/01 02:59:10;;;;;;;;;;;;;;;18.64;58.70;97680.25;2072883;28;19933;-52
2023/04/01 03:00:12;;;;;;;;;;;;;;;18.64;58.47;97676.75;2076864;28;19998;-53
2023/04/01 03:01:13;;;;;;;;;;;;;;;18.63;58.75;97678.59;2075878;28;20013;-52
2023/04/01 03:02:14;;;;;;;;;;;;;;;18.64;58.77;97688.28;2074162;28;19964;-53
2023/04/01 03:03:15;;;;;;;;;;;;;;;18.62;58.63;97684.19;2080417;28;19925;-54
2023/04/01 03:04:16;;;;;;;;;;;;;;;18.62;58.81;97689.56;2073890;28;19928;-55
2023/04/01 03:05:17;;;;;;;;;;;;;;;18.64;58.57;97687.47;2074133;28;19925;-54
2023/04/01 03:06:18;;;;;;;;;;;;;;;18.63;58.78;97688.50;2073977;28;19971;-53
2023/04/01 03:07:19;;;;;;;;;;;;;;;18.63;58.74;97691.19;2076307;28;19929;-53
2023/04/01 03:08:20;;;;;;;;;;;;;;;18.62;58.80;97687.69;2076071;28;19929;-51
2023/04/01 03:09:22;;;;;;;;;;;;;;;18.62;58.74;97687.69;2076931;28;19925;-54
2023/04/01 03:10:24;;;;;;;;;;;;;;;18.62;58.57;97681.50;2075877;28;20676;-54
2023/04/01 03:11:25;;;;;;;;;;;;;;;18.60;58.68;97683.59;2075283;28;19925;-54
2023/04/01 03:12:27;;;;;;;;;;;;;;;18.60;58.83;97683.59;2077227;28;20008;-52
2023/04/01 03:13:27;;;;;;;;;;;;;;;18.61;58.60;97685.22;2076810;28;20465;-53
2023/04/01 03:14:29;;;;;;;;;;;;;;;18.62;58.82;97681.50;2075147;28;19929;-53
2023/04/01 03:15:29;;;;;;;;;;;;;;;18.62;58.70;97687.69;2076018;28;19930;-54
2023/04/01 03:16:31;;;;;;;;;;;;;;;18.59;58.82;97687.34;2076704;28;19925;-52
2023/04/01 03:17:31;;;;;;;;;;;;;;;18.60;58.76;97694.34;2078287;28;20303;-50
2023/04/01 03:18:33;;;;;;;;;;;;;;;18.58;58.74;97688.38;2076580;28;19935;-52
2023/04/01 03:19:34;;;;;;;;;;;;;;;18.58;58.63;97691.88;2074041;28;19925;-53
2023/04/01 03:20:35;;;;;;;;;;;;;;;18.59;58.66;97695.41;2074677;28;20879;-54
2023/04/01 03:21:35;;;;;;;;;;;;;;;18.59;58.75;97692.72;2076720;28;19925;-53
2023/04/01 03:22:37;;;;;;;;;;;;;;;18.59;58.59;97695.41;2072887;28;19925;-54
2023/04/01 03:23:37;;;;;;;;;;;;;;;18.59;58.57;97698.09;2078017;28;19999;-53
2023/04/01 03:24:40;;;;;;;;;;;;;;;18.58;58.53;97701.78;2073966;28;19932;-53
2023/04/01 03:25:41;;;;;;;;;;;;;;;18.58;58.71;97701.78;2077712;28;20031;-53
2023/04/01 03:26:42;;;;;;;;;;;;;;;18.58;58.74;97699.09;2073106;28;20474;-51
2023/04/01 03:27:43;;;;;;;;;;;;;;;18.56;58.77;97696.66;2075899;28;19929;-55
2023/04/01 03:28:44;;;;;;;;;;;;;;;18.56;58.55;97698.53;2076295;28;20026;-53
2023/04/01 03:29:45;;;;;;;;;;;;;;;18.56;58.68;97702.03;2076463;28;19929;-53
2023/04/01 03:30:47;;;;;;;;;;;;;;;18.57;58.78;97697.47;2074912;28;19928;-54
2023/04/01 03:31:47;;;;;;;;;;;;;;;18.57;58.62;97697.47;2076720;28;19929;-54
2023/04/01 03:32:48;;;;;;;;;;;;;;;18.56;58.61;97693.16;2075285;28;20559;-52
2023/04/01 03:33:49;;;;;;;;;;;;;;;18.57;58.69;97697.47;2078018;28;19928;-53
2023/04/01 03:34:50;;;;;;;;;;;;;;;18.57;58.62;97700.16;2072031;28;19974;-53
2023/04/01 03:35:52;;;;;;;;;;;;;;;18.57;58.52;97700.16;2079221;28;20027;-52
2023/04/01 03:36:53;;;;;;;;;;;;;;;18.56;58.78;97698.53;2075640;28;20359;-52
2023/04/01 03:37:54;;;;;;;;;;;;;;;18.54;58.66;97707.63;2076057;28;20433;-53
2023/04/01 03:38:55;;;;;;;;;;;;;;;18.56;58.61;97712.78;2075027;28;19932;-54
2023/04/01 03:39:57;;;;;;;;;;;;;;;18.56;58.47;97709.28;2074270;28;19933;-52
2023/04/01 03:40:58;;;;;;;;;;;;;;;18.56;58.49;97709.28;2076276;28;20032;-54
2023/04/01 03:41:59;;;;;;;;;;;;;;;18.55;58.56;97711.13;2078073;28;20011;-51
2023/04/01 03:43:01;;;;;;;;;;;;;;;18.54;58.61;97713.00;2078650;28;19933;-56
2023/04/01 03:44:01;;;;;;;;;;;;;;;18.56;58.69;97706.59;2078679;28;20019;-51
2023/04/01 03:45:03;;;;;;;;;;;;;;;18.54;58.45;97710.31;2077118;28;20428;-56
2023/04/01 03:46:04;;;;;;;;;;;;;;;18.54;58.72;97707.63;2076779;28;19929;-57
2023/04/01 03:47:05;;;;;;;;;;;;;;;18.53;58.57;97708.66;2076986;28;19940;-54
2023/04/01 03:48:06;;;;;;;;;;;;;;;18.53;58.48;97711.34;2077014;28;19960;-56
2023/04/01 03:49:11;;;;;;;;;;;;;;;18.52;58.81;97712.38;2077842;28;19933;-50
2023/04/01 03:50:11;;;;;;;;;;;;;;;18.52;58.74;97708.88;2077548;28;19986;-52
2023/04/01 03:51:13;;;;;;;;;;;;;;;18.51;58.67;97713.44;2076919;28;19937;-52
2023/04/01 03:52:13;;;;;;;;;;;;;;;18.51;58.60;97708.06;2076146;28;21619;-55
2023/04/01 03:53:15;;;;;;;;;;;;;;;18.51;58.74;97705.38;2077804;28;19925;-51
2023/04/01 03:54:15;;;;;;;;;;;;;;;18.52;58.65;97706.19;2076769;28;20513;-54
2023/04/01 03:55:18;;;;;;;;;;;;;;;18.49;58.57;97709.34;2077547;28;20019;-53
2023/04/01 03:56:19;;;;;;;;;;;;;;;18.51;58.65;97710.75;2076026;28;19951;-52
2023/04/01 03:57:20;;;;;;;;;;;;;;;18.49;58.76;97702.09;2078302;28;20027;-55
2023/04/01 03:58:21;;;;;;;;;;;;;;;18.49;58.85;97704.78;2078334;28;20016;-56
2023/04/01 03:59:22;;;;;;;;;;;;;;;18.50;58.62;97709.13;2074678;28;19940;-55
2023/04/01 04:00:23;;;;;;;;;;;;;;;18.51;58.67;97704.56;2071347;28;19928;-54
2023/04/01 04:01:24;;;;;;;;;;;;;;;18.49;58.52;97709.34;2077978;28;20491;-57
2023/04/01 04:02:25;;;;;;;;;;;;;;;18.49;58.79;97710.16;2068048;28;22017;-57
2023/04/01 04:03:26;;;;;;;;;;;;;;;18.49;58.68;97712.84;2073374;28;19971;-55
2023/04/01 04:04:27;;;;;;;;;;;;;;;18.49;58.59;97715.53;2080788;28;19928;-54
2023/04/01 04:05:29;;;;;;;;;;;;;;;18.49;58.76;97718.22;2075862;28;19936;-51
2023/04/01 04:06:29;;;;;;;;;;;;;;;18.49;58.51;97712.84;2077665;28;19933;-52
2023/04/01 04:07:31;;;;;;;;;;;;;;;18.49;58.63;97714.72;2078783;28;20381;-54
2023/04/01 04:08:31;;;;;;;;;;;;;;;18.48;58.72;97713.91;2078548;28;20006;-50
2023/04/01 04:09:33;;;;;;;;;;;;;;;18.47;58.77;97712.25;2076028;28;19929;-51
2023/04/01 04:10:35;;;;;;;;;;;;;;;18.47;58.53;97720.31;2075859;28;19932;-51
2023/04/01 04:11:36;;;;;;;;;;;;;;;18.47;58.72;97722.16;2076753;28;19972;-49
2023/04/01 04:12:37;;;;;;;;;;;;;;;18.46;58.69;97715.97;2080273;28;20048;-50
2023/04/01 04:13:38;;;;;;;;;;;;;;;18.49;58.41;97714.72;2078217;28;20476;-48
2023/04/01 04:14:40;;;;;;;;;;;;;;;18.49;58.69;97725.44;2076109;28;19929;-53
2023/04/01 04:15:40;;;;;;;;;;;;;;;18.48;58.55;97723.81;2077392;28;19929;-56
2023/04/01 04:16:42;;;;;;;;;;;;;;;18.48;58.47;97723.81;2076446;28;19929;-55
2023/04/01 04:17:43;;;;;;;;;;;;;;;18.47;58.80;97728.38;2077218;28;19929;-52
2023/04/01 04:18:45;;;;;;;;;;;;;;;18.44;58.56;97726.16;2078038;28;20015;-53
2023/04/01 04:19:45;;;;;;;;;;;;;;;18.46;58.58;97731.28;2078243;28;19933;-51
2023/04/01 04:20:49;;;;;;;;;;;;;;;18.44;58.58;97726.16;2079458;28;19933;-51
2023/04/01 04:21:51;;;;;;;;;;;;;;;18.45;58.70;97733.16;2076862;28;19929;-49
2023/04/01 04:22:51;;;;;;;;;;;;;;;18.45;58.79;97732.31;2075861;28;19945;-52
2023/04/01 04:23:53;;;;;;;;;;;;;;;18.44;58.73;97734.19;2078505;28;20338;-51
2023/04/01 04:24:53;;;;;;;;;;;;;;;18.44;58.74;97734.19;2076085;28;20833;-50
2023/04/01 04:25:57;;;;;;;;;;;;;;;18.43;58.51;97734.41;2076944;28;19929;-57
2023/04/01 04:26:58;;;;;;;;;;;;;;;18.44;58.50;97741.41;2069243;28;19929;-57
2023/04/01 04:27:59;;;;;;;;;;;;;;;18.45;58.73;97745.75;2075624;28;19933;-52
2023/04/01 04:29:00;;;;;;;;;;;;;;;18.43;58.81;97754.00;2077300;28;19975;-54
2023/04/01 04:30:01;;;;;;;;;;;;;;;18.43;58.78;97747.84;2076617;28;19928;-51
2023/04/01 04:31:02;;;;;;;;;;;;;;;18.42;58.83;97757.75;2080049;28;20006;-53
2023/04/01 04:32:03;;;;;;;;;;;;;;;18.42;58.78;97755.06;2076282;28;20026;-52
2023/04/01 04:33:05;;;;;;;;;;;;;;;18.43;58.85;97755.88;2074930;28;19933;-54
2023/04/01 04:34:06;;;;;;;;;;;;;;;18.44;58.96;97765.56;2076775;28;19928;-51
2023/04/01 04:35:07;;;;;;;;;;;;;;;18.43;58.73;97759.38;2076644;28;20056;-54
2023/04/01 04:36:09;;;;;;;;;;;;;;;18.42;58.77;97757.75;2075357;28;19940;-57
2023/04/01 04:37:09;;;;;;;;;;;;;;;18.43;58.74;97767.44;2076751;28;19983;-51
2023/04/01 04:38:11;;;;;;;;;;;;;;;18.42;58.74;97765.00;2076790;28;21406;-55
2023/04/01 04:39:12;;;;;;;;;;;;;;;18.42;58.67;97768.50;2077491;28;20007;-48
2023/04/01 04:40:13;;;;;;;;;;;;;;;18.43;58.91;97769.31;2077421;28;19971;-52
2023/04/01 04:41:17;;;;;;;;;;;;;;;18.42;58.88;97773.06;2077846;28;20662;-49
2023/04/01 04:42:18;;;;;;;;;;;;;;;18.41;58.95;97766.03;2078419;28;19936;-57
2023/04/01 04:43:19;;;;;;;;;;;;;;;18.41;58.94;97763.34;2077897;28;19975;-54
2023/04/01 04:44:20;;;;;;;;;;;;;;;18.39;59.04;97768.94;2077649;28;19933;-55
2023/04/01 04:45:21;;;;;;;;;;;;;;;18.39;58.91;97768.13;2075446;28;19972;-53
2023/04/01 04:46:22;;;;;;;;;;;;;;;18.38;58.89;97772.66;2077857;28;19933;-56
2023/04/01 04:47:23;;;;;;;;;;;;;;;18.39;58.98;97770.81;2078064;28;19983;-50
2023/04/01 04:48:24;;;;;;;;;;;;;;;18.38;58.90;97778.03;2077852;28;19933;-51
2023/04/01 04:49:26;;;;;;;;;;;;;;;18.39;59.06;97778.88;2077260;28;19925;-53
2023/04/01 04:50:26;;;;;;;;;;;;;;;18.39;58.98;97778.88;2077491;28;20546;-55
2023/04/01 04:51:27;;;;;;;;;;;;;;;18.39;58.92;97776.19;2080778;28;19978;-56
2023/04/01 04:52:28;;;;;;;;;;;;;;;18.38;59.01;97780.72;2077121;28;19928;-56
2023/04/01 04:53:29;;;;;;;;;;;;;;;18.37;59.00;97776.41;2076654;28;19929;-54
2023/04/01 04:54:30;;;;;;;;;;;;;;;18.38;58.83;97783.41;2077391;28;19929;-53
2023/04/01 04:55:31;;;;;;;;;;;;;;;18.38;58.97;97782.59;2076033;28;19929;-58
2023/04/01 04:56:33;;;;;;;;;;;;;;;18.37;58.93;97786.31;2078020;28;19963;-54
2023/04/01 04:57:35;;;;;;;;;;;;;;;18.36;58.98;97782.81;2078173;28;19975;-58
2023/04/01 04:58:35;;;;;;;;;;;;;;;18.36;58.73;97782.81;2077181;28;20338;-49
2023/04/01 04:59:37;;;;;;;;;;;;;;;18.38;58.96;97783.41;2079002;28;19929;-53
2023/04/01 05:00:37;;;;;;;;;;;;;;;18.36;58.82;97782.81;2078183;28;20588;-55
2023/04/01 05:01:39;;;;;;;;;;;;;;;18.36;58.76;97790.88;2080836;28;20020;-50
2023/04/01 05:02:40;;;;;;;;;;;;;;;18.36;58.90;97790.88;2078299;28;19933;-51
2023/04/01 05:03:41;;;;;;;;;;;;;;;18.34;58.92;97787.59;2076083;28;19940;-50
2023/04/01 05:04:42;;;;;;;;;;;;;;;18.35;58.93;97781.16;2076499;28;20300;-54
2023/04/01 05:05:49;;;;;;;;;;;;;;;18.35;58.77;97781.16;2073578;28;19990;-48
2023/04/01 05:06:51;;;;;;;;;;;;;;;18.35;58.74;97788.41;2079223;28;19933;-52
2023/04/01 05:07:51;;;;;;;;;;;;;;;18.33;58.90;97783.25;2079057;28;19932;-51
2023/04/01 05:08:53;;;;;;;;;;;;;;;18.34;58.90;97784.09;2078676;28;20679;-50
2023/04/01 05:09:53;;;;;;;;;;;;;;;18.32;58.77;97781.59;2075238;28;19933;-55
2023/04/01 05:10:55;;;;;;;;;;;;;;;18.33;59.02;97788.63;2069477;28;19932;-52
2023/04/01 05:11:57;;;;;;;;;;;;;;;18.33;58.90;97783.25;2069207;28;20014;-56
2023/04/01 05:12:58;;;;;;;;;;;;;;;18.32;58.88;97789.66;2076913;28;20292;-50
2023/04/01 05:13:59;;;;;;;;;;;;;;;18.32;58.98;97795.03;2079155;28;19986;-55
2023/04/01 05:15:00;;;;;;;;;;;;;;;18.34;58.84;97792.94;2076556;28;20034;-54
2023/04/01 05:16:01;;;;;;;;;;;;;;;18.34;58.96;97798.31;2078834;28;19933;-53
2023/04/01 05:17:02;;;;;;;;;;;;;;;18.31;58.75;97790.72;2079824;28;19990;-52
2023/04/01 05:18:03;;;;;;;;;;;;;;;18.29;58.89;97793.59;2077804;28;19929;-55
2023/04/01 05:19:04;;;;;;;;;;;;;;;18.31;58.80;97793.41;2079244;28;19929;-50
2023/04/01 05:20:05;;;;;;;;;;;;;;;18.29;59.24;97798.16;2077589;28;19929;-54
2023/04/01 05:21:08;;;;;;;;;;;;;;;18.27;58.98;97798.38;2078072;28;19928;-56
2023/04/01 05:22:08;;;;;;;;;;;;;;;18.27;58.85;97803.72;2081680;28;20087;-56
2023/04/01 05:23:11;;;;;;;;;;;;;;;18.27;58.85;97802.91;2078888;28;20012;-54
2023/04/01 05:24:11;;;;;;;;;;;;;;;18.27;58.90;97803.72;2077002;28;20997;-53